Time;durP1;ratioP1;P1;durP2;ratioP2;P2;SDS_P1;SDS_P2;PMS_P1;PMS_P2;Temp;Humidity;BMP_temperature;BMP_pressure;BME280_temperature;BME280_humidity;BME280_pressure;Samples;Min_cycle;Max_cycle;Signal;HPM_P1;HPM_P2
2021/03/02 00:02:01;;;;;;;120.95;36.30;;;4.00;91.60;;;;;;6098025;23;20059;-88
2021/03/02 00:04:28;;;;;;;134.85;37.20;;;3.90;91.60;;;;;;6073542;23;20412;-86
2021/03/02 00:06:54;;;;;;;109.72;36.42;;;3.90;91.60;;;;;;6098268;23;20454;-86
2021/03/02 00:09:20;;;;;;;125.93;37.92;;;3.80;91.60;;;;;;6098774;23;20013;-86
2021/03/02 00:11:49;;;;;;;142.15;39.08;;;3.80;91.60;;;;;;6099294;23;20062;-86
2021/03/02 00:14:16;;;;;;;123.55;37.22;;;3.80;91.70;;;;;;6121635;23;20066;-87
2021/03/02 00:16:56;;;;;;;103.72;35.72;;;3.70;91.60;;;;;;6098962;23;20021;-87
2021/03/02 00:19:32;;;;;;;106.13;36.63;;;3.80;91.80;;;;;;6098757;23;20289;-87
2021/03/02 00:22:04;;;;;;;91.88;33.90;;;3.80;91.70;;;;;;6104138;23;20036;-87
2021/03/02 00:24:32;;;;;;;92.57;33.47;;;3.80;91.70;;;;;;6098772;23;20380;-86
2021/03/02 00:26:58;;;;;;;122.10;37.22;;;3.70;91.60;;;;;;6098064;23;20036;-87
2021/03/02 00:29:24;;;;;;;101.70;35.70;;;3.70;91.60;;;;;;6123027;23;20422;-86
2021/03/02 00:31:50;;;;;;;93.32;33.40;;;3.70;91.70;;;;;;6098051;23;20386;-87
2021/03/02 00:34:16;;;;;;;107.57;35.08;;;3.70;91.90;;;;;;6147600;23;20013;-88
2021/03/02 00:36:42;;;;;;;112.07;35.92;;;3.70;91.60;;;;;;6074736;23;20416;-87
2021/03/02 00:39:08;;;;;;;110.45;35.55;;;3.70;91.70;;;;;;6097787;23;20082;-89
2021/03/02 00:41:34;;;;;;;165.98;36.13;;;3.70;91.70;;;;;;6098604;23;20441;-88
2021/03/02 00:43:59;;;;;;;127.78;35.63;;;3.70;91.70;;;;;;6073326;23;20021;-89
2021/03/02 00:46:25;;;;;;;165.55;35.42;;;3.70;91.80;;;;;;6096955;23;20017;-88
2021/03/02 00:48:51;;;;;;;136.07;36.75;;;3.70;91.80;;;;;;6097353;23;20143;-85
2021/03/02 00:51:17;;;;;;;121.40;34.80;;;3.70;91.80;;;;;;6097656;23;20044;-86
2021/03/02 00:53:43;;;;;;;118.45;34.90;;;3.60;91.80;;;;;;6097682;23;20017;-87
2021/03/02 00:56:09;;;;;;;117.68;36.63;;;3.60;91.70;;;;;;6097474;23;20040;-89
2021/03/02 00:58:35;;;;;;;143.88;37.50;;;3.60;91.80;;;;;;6101074;23;20358;-85
2021/03/02 01:01:01;;;;;;;131.63;36.28;;;3.60;92.10;;;;;;6121729;23;20111;-86
2021/03/02 01:03:26;;;;;;;112.22;35.40;;;3.60;91.80;;;;;;6099414;23;20092;-86
2021/03/02 01:05:52;;;;;;;127.65;36.58;;;3.60;91.90;;;;;;6074469;23;20017;-87
2021/03/02 01:08:19;;;;;;;126.97;37.53;;;3.60;91.90;;;;;;6099751;23;20067;-89
2021/03/02 01:10:45;;;;;;;130.13;36.28;;;3.50;91.80;;;;;;6097678;23;20430;-87
2021/03/02 01:13:10;;;;;;;116.07;35.72;;;3.50;91.80;;;;;;6098722;23;20024;-86
2021/03/02 01:15:36;;;;;;;135.20;36.85;;;3.50;91.80;;;;;;6073799;23;20013;-86
2021/03/02 01:18:03;;;;;;;118.72;34.20;;;3.50;91.90;;;;;;6074359;23;20100;-87
2021/03/02 01:20:29;;;;;;;121.95;34.08;;;3.50;91.90;;;;;;6098393;23;20021;-88
2021/03/02 01:22:55;;;;;;;114.30;35.85;;;3.40;91.90;;;;;;6098458;23;20323;-88
2021/03/02 01:25:21;;;;;;;119.32;35.88;;;3.40;91.90;;;;;;6098523;23;20009;-86
2021/03/02 01:27:47;;;;;;;124.55;37.25;;;3.40;91.80;;;;;;6098286;23;20483;-86
2021/03/02 01:30:14;;;;;;;154.02;38.53;;;3.40;91.90;;;;;;6097843;23;20036;-86
2021/03/02 01:32:40;;;;;;;123.32;37.45;;;3.40;92.00;;;;;;6102052;23;20415;-85
2021/03/02 01:35:07;;;;;;;112.30;36.55;;;3.40;92.00;;;;;;6100023;23;20020;-85
2021/03/02 01:37:33;;;;;;;133.60;36.63;;;3.40;92.00;;;;;;6098460;23;20015;-86
2021/03/02 01:39:59;;;;;;;133.25;37.42;;;3.40;92.10;;;;;;6123511;23;20013;-87
2021/03/02 01:42:25;;;;;;;119.60;35.38;;;3.40;92.00;;;;;;6099686;23;20016;-87
2021/03/02 01:44:50;;;;;;;139.93;39.25;;;3.40;92.00;;;;;;6097843;23;20021;-83
2021/03/02 01:47:16;;;;;;;121.80;35.88;;;3.40;92.00;;;;;;6098669;23;20446;-88
2021/03/02 01:49:42;;;;;;;150.27;38.60;;;3.40;92.10;;;;;;6099636;23;20363;-87
2021/03/02 01:52:08;;;;;;;159.98;37.03;;;3.30;92.00;;;;;;6074182;23;20013;-86
2021/03/02 01:54:36;;;;;;;116.63;37.05;;;3.40;92.10;;;;;;6097944;23;20043;-86
2021/03/02 01:57:02;;;;;;;124.00;35.55;;;3.30;92.10;;;;;;6098651;23;20012;-85
2021/03/02 01:59:28;;;;;;;129.48;37.83;;;3.30;92.10;;;;;;6124708;23;20009;-86
2021/03/02 02:01:54;;;;;;;183.70;39.15;;;3.30;92.00;;;;;;6122083;23;20013;-85
2021/03/02 02:04:21;;;;;;;143.95;37.15;;;3.30;92.00;;;;;;6100188;23;20021;-86
2021/03/02 02:06:49;;;;;;;148.98;37.03;;;3.30;92.00;;;;;;6104510;23;20028;-85
2021/03/02 02:09:34;;;;;;;114.53;35.47;;;3.20;92.10;;;;;;6123924;23;20097;-86
2021/03/02 02:12:09;;;;;;;130.82;37.60;;;3.20;92.10;;;;;;6124249;22;20051;-85
2021/03/02 02:14:40;;;;;;;154.60;36.97;;;3.20;92.10;;;;;;6098320;23;20013;-88
2021/03/02 02:17:26;;;;;;;138.63;37.30;;;3.20;92.10;;;;;;6122559;23;20092;-87
2021/03/02 02:19:52;;;;;;;177.90;37.53;;;3.20;92.10;;;;;;6108670;23;20017;-87
2021/03/02 02:22:24;;;;;;;160.95;39.40;;;3.10;92.10;;;;;;6098534;23;20105;-88
2021/03/02 02:25:12;;;;;;;174.32;38.33;;;3.10;92.10;;;;;;6148341;23;20189;-87
2021/03/02 02:27:38;;;;;;;143.60;38.13;;;3.10;92.30;;;;;;6099566;23;20060;-87
2021/03/02 02:30:05;;;;;;;174.98;38.92;;;3.10;92.20;;;;;;6097624;23;20465;-88
2021/03/02 02:32:31;;;;;;;166.45;35.70;;;3.10;92.20;;;;;;6097764;23;20017;-87
2021/03/02 02:34:57;;;;;;;166.20;37.35;;;3.10;92.20;;;;;;6123127;23;20009;-86
2021/03/02 02:37:26;;;;;;;155.48;38.13;;;3.10;92.20;;;;;;6122044;23;20473;-86
2021/03/02 02:39:54;;;;;;;146.80;38.50;;;3.10;92.20;;;;;;6098470;23;20020;-90
2021/03/02 02:42:19;;;;;;;130.70;38.35;;;3.10;92.20;;;;;;6102250;23;20117;-87
2021/03/02 02:44:46;;;;;;;129.65;37.05;;;3.00;92.30;;;;;;6100027;23;20445;-87
2021/03/02 02:47:12;;;;;;;167.65;38.17;;;3.00;92.20;;;;;;6097971;23;20009;-87
2021/03/02 02:49:38;;;;;;;161.43;39.13;;;3.00;92.20;;;;;;6098679;23;20017;-87
2021/03/02 02:52:03;;;;;;;147.88;38.78;;;3.10;92.30;;;;;;6097792;23;20020;-87
2021/03/02 02:54:29;;;;;;;162.57;39.17;;;3.10;92.30;;;;;;6074902;23;20013;-87
2021/03/02 02:56:55;;;;;;;174.15;37.30;;;3.00;92.30;;;;;;6096551;23;20017;-88
2021/03/02 02:59:29;;;;;;;229.23;40.08;;;3.00;92.30;;;;;;6123587;23;20464;-86
2021/03/02 03:01:59;;;;;;;209.85;37.58;;;3.00;92.30;;;;;;6098660;23;20043;-85
2021/03/02 03:04:27;;;;;;;165.98;37.70;;;3.00;92.30;;;;;;6098269;23;20199;-87
2021/03/02 03:06:54;;;;;;;133.85;38.05;;;3.00;92.30;;;;;;6097971;23;20039;-87
2021/03/02 03:09:21;;;;;;;150.77;36.88;;;3.00;92.40;;;;;;6098457;23;20013;-87
2021/03/02 03:11:49;;;;;;;171.55;39.00;;;3.00;92.30;;;;;;6099194;23;20446;-86
2021/03/02 03:14:14;;;;;;;120.85;35.63;;;3.00;92.40;;;;;;6101618;23;20420;-88
2021/03/02 03:16:42;;;;;;;140.80;36.00;;;3.00;92.30;;;;;;6104859;23;20017;-88
2021/03/02 03:19:08;;;;;;;152.68;38.20;;;3.00;92.30;;;;;;6077108;23;20013;-85
2021/03/02 03:21:34;;;;;;;241.15;40.55;;;3.00;92.40;;;;;;6100198;23;20043;-87
2021/03/02 03:24:00;;;;;;;229.10;38.55;;;2.90;92.30;;;;;;6099628;23;20013;-86
2021/03/02 03:26:27;;;;;;;136.65;36.20;;;3.00;92.40;;;;;;6074557;23;20020;-87
2021/03/02 03:28:53;;;;;;;150.77;37.35;;;3.00;92.40;;;;;;6075940;23;20078;-86
2021/03/02 03:31:19;;;;;;;188.98;38.60;;;3.00;92.40;;;;;;6100052;23;20017;-86
2021/03/02 03:33:45;;;;;;;151.15;38.22;;;3.00;92.50;;;;;;6100127;23;20017;-88
2021/03/02 03:36:11;;;;;;;224.48;37.55;;;3.00;92.50;;;;;;6075972;23;20017;-87
2021/03/02 03:38:37;;;;;;;132.82;36.97;;;3.00;92.50;;;;;;6099632;23;20009;-88
2021/03/02 03:41:03;;;;;;;171.52;36.63;;;2.90;92.40;;;;;;6075383;23;20013;-88
2021/03/02 03:43:29;;;;;;;213.93;39.47;;;2.90;92.70;;;;;;6075768;23;20009;-87
2021/03/02 03:45:55;;;;;;;247.52;41.92;;;2.90;92.50;;;;;;6075101;23;20484;-85
2021/03/02 03:48:21;;;;;;;186.48;36.97;;;2.90;92.40;;;;;;6147319;23;20051;-88
2021/03/02 03:50:47;;;;;;;216.50;40.75;;;2.90;92.50;;;;;;6099668;23;20017;-88
2021/03/02 03:53:13;;;;;;;169.45;38.72;;;2.90;92.40;;;;;;6078007;23;20024;-87
2021/03/02 03:55:40;;;;;;;191.80;40.90;;;2.90;92.50;;;;;;6075001;23;20017;-87
2021/03/02 03:58:07;;;;;;;196.63;39.72;;;2.90;92.50;;;;;;6099177;23;20399;-87
2021/03/02 04:00:34;;;;;;;130.60;35.70;;;2.90;92.50;;;;;;6099487;23;20010;-88
2021/03/02 04:03:01;;;;;;;158.93;40.08;;;2.90;92.60;;;;;;6075652;23;20021;-86
2021/03/02 04:05:26;;;;;;;163.38;39.92;;;2.90;92.50;;;;;;6099156;23;20741;-87
2021/03/02 04:07:52;;;;;;;246.80;38.03;;;2.90;92.50;;;;;;6098648;23;20020;-86
2021/03/02 04:10:18;;;;;;;248.60;40.10;;;2.90;92.60;;;;;;6098585;23;20017;-88
2021/03/02 04:12:45;;;;;;;148.60;38.63;;;2.90;92.60;;;;;;6098702;23;20033;-87
2021/03/02 04:15:15;;;;;;;270.55;43.17;;;2.90;92.90;;;;;;6099086;23;20017;-86
2021/03/02 04:17:52;;;;;;;217.27;39.85;;;2.90;92.50;;;;;;6121617;23;20542;-86
2021/03/02 04:20:18;;;;;;;191.93;38.45;;;2.90;92.60;;;;;;6099889;23;20043;-86
2021/03/02 04:22:43;;;;;;;240.35;38.80;;;2.80;92.60;;;;;;6098872;23;20013;-85
2021/03/02 04:25:10;;;;;;;213.68;39.42;;;2.80;92.60;;;;;;6098706;23;20525;-87
2021/03/02 04:27:35;;;;;;;172.95;37.45;;;2.80;92.70;;;;;;6100956;23;20066;-86
2021/03/02 04:30:02;;;;;;;191.00;39.40;;;2.70;92.60;;;;;;6098313;23;20050;-89
2021/03/02 04:32:28;;;;;;;247.82;37.97;;;2.70;92.60;;;;;;6099195;23;20036;-90
2021/03/02 04:34:53;;;;;;;255.48;38.38;;;2.70;92.60;;;;;;6100476;23;20114;-88
2021/03/02 04:37:19;;;;;;;259.30;39.20;;;2.80;92.60;;;;;;6098700;23;20028;-86
2021/03/02 04:39:45;;;;;;;198.30;37.80;;;2.70;92.70;;;;;;6099748;23;20017;-87
2021/03/02 04:42:11;;;;;;;169.63;39.80;;;2.70;92.70;;;;;;6098474;23;20040;-85
2021/03/02 04:44:37;;;;;;;177.05;39.20;;;2.70;92.70;;;;;;6099799;23;20024;-89
2021/03/02 04:47:03;;;;;;;362.00;45.65;;;2.70;92.70;;;;;;6098144;23;20057;-88
2021/03/02 04:49:29;;;;;;;181.35;37.08;;;2.70;92.70;;;;;;6075389;23;20084;-89
2021/03/02 04:51:54;;;;;;;214.32;35.70;;;2.70;92.80;;;;;;6098208;23;20016;-88
2021/03/02 04:54:20;;;;;;;227.30;36.10;;;2.60;92.80;;;;;;6098565;23;20013;-87
2021/03/02 04:56:46;;;;;;;243.77;38.97;;;2.70;92.70;;;;;;6123465;23;20634;-85
2021/03/02 04:59:12;;;;;;;152.38;36.65;;;2.70;92.70;;;;;;6099160;23;20020;-87
2021/03/02 05:01:37;;;;;;;245.23;39.55;;;2.70;92.80;;;;;;6102517;23;20013;-87
2021/03/02 05:04:03;;;;;;;268.08;40.92;;;2.70;92.80;;;;;;6098689;23;20013;-89
2021/03/02 05:06:29;;;;;;;193.07;38.83;;;2.70;92.80;;;;;;6099085;23;20021;-88
2021/03/02 05:08:55;;;;;;;231.52;38.60;;;2.70;92.80;;;;;;6099736;23;20386;-87
2021/03/02 05:11:21;;;;;;;134.35;35.97;;;2.70;92.70;;;;;;6099792;23;20070;-88
2021/03/02 05:13:47;;;;;;;166.73;37.90;;;2.70;92.80;;;;;;6123107;23;20017;-90
2021/03/02 05:16:13;;;;;;;255.90;42.13;;;2.70;92.80;;;;;;6097896;23;20036;-87
2021/03/02 05:18:42;;;;;;;258.15;38.90;;;2.70;92.80;;;;;;6100041;23;20013;-87
2021/03/02 05:21:08;;;;;;;202.88;34.20;;;2.70;92.90;;;;;;6075081;23;20014;-87
2021/03/02 05:23:35;;;;;;;240.02;36.60;;;2.70;92.80;;;;;;6075380;23;20055;-87
2021/03/02 05:26:01;;;;;;;198.15;39.58;;;2.60;92.80;;;;;;6124560;23;20017;-88
2021/03/02 05:28:27;;;;;;;191.85;38.17;;;2.60;92.80;;;;;;6074433;23;20014;-89
2021/03/02 05:30:53;;;;;;;303.63;42.05;;;2.60;93.20;;;;;;6099820;23;20013;-87
2021/03/02 05:33:18;;;;;;;251.40;40.25;;;2.60;92.90;;;;;;6075398;23;20049;-89
2021/03/02 05:35:46;;;;;;;388.52;46.38;;;2.60;92.90;;;;;;6120878;23;20187;-86
2021/03/02 05:38:11;;;;;;;338.35;44.10;;;2.60;92.90;;;;;;6095398;23;20041;-86
2021/03/02 05:40:38;;;;;;;457.95;46.65;;;2.60;92.90;;;;;;6094852;23;20017;-87
2021/03/02 05:43:04;;;;;;;296.02;39.78;;;2.60;92.90;;;;;;6116048;23;20483;-88
2021/03/02 05:45:30;;;;;;;301.50;39.33;;;2.60;93.00;;;;;;6093539;23;20017;-86
2021/03/02 05:47:56;;;;;;;206.15;38.65;;;2.60;92.90;;;;;;6117840;23;20071;-87
2021/03/02 05:50:21;;;;;;;205.43;39.97;;;2.60;92.90;;;;;;6094203;23;20013;-87
2021/03/02 05:52:47;;;;;;;289.63;42.55;;;2.60;92.90;;;;;;6094304;23;20013;-84
2021/03/02 05:55:13;;;;;;;255.68;43.75;;;2.60;93.00;;;;;;6120877;23;20013;-85
2021/03/02 05:57:39;;;;;;;248.55;43.30;;;2.60;93.00;;;;;;6096615;23;20013;-86
2021/03/02 06:00:06;;;;;;;309.48;44.90;;;2.60;92.90;;;;;;6094161;23;20454;-85
2021/03/02 06:02:32;;;;;;;160.48;40.50;;;2.60;92.90;;;;;;6094698;23;20063;-85
2021/03/02 06:04:58;;;;;;;329.20;46.28;;;2.60;92.90;;;;;;6096165;23;20510;-87
2021/03/02 06:07:24;;;;;;;368.23;49.08;;;2.60;93.00;;;;;;6069350;23;20013;-86
2021/03/02 06:09:50;;;;;;;167.77;39.13;;;2.60;93.00;;;;;;6094946;23;20470;-85
2021/03/02 06:12:16;;;;;;;271.42;45.38;;;2.60;93.00;;;;;;6098958;23;20019;-85
2021/03/02 06:14:42;;;;;;;318.23;44.70;;;2.70;93.00;;;;;;6120003;23;20071;-84
2021/03/02 06:17:08;;;;;;;263.65;44.25;;;2.70;93.00;;;;;;6119283;23;20037;-87
2021/03/02 06:19:41;;;;;;;246.68;41.47;;;2.70;93.00;;;;;;6123052;23;20381;-85
2021/03/02 06:22:08;;;;;;;225.63;42.25;;;2.60;93.00;;;;;;6145147;23;20013;-85
2021/03/02 06:24:38;;;;;;;167.30;40.53;;;2.60;93.00;;;;;;6097373;23;20092;-85
2021/03/02 06:27:08;;;;;;;194.07;40.90;;;2.60;93.00;;;;;;6096549;23;20017;-86
2021/03/02 06:29:34;;;;;;;215.52;40.75;;;2.60;93.00;;;;;;6071460;23;20100;-85
2021/03/02 06:32:00;;;;;;;173.32;40.90;;;2.60;93.00;;;;;;6122452;23;20029;-85
2021/03/02 06:34:26;;;;;;;183.10;39.47;;;2.70;93.00;;;;;;6116863;23;20169;-83
2021/03/02 06:36:55;;;;;;;282.98;45.55;;;2.70;93.10;;;;;;6093943;23;20044;-84
2021/03/02 06:39:31;;;;;;;188.43;43.88;;;2.60;93.00;;;;;;6142196;23;20013;-88
2021/03/02 06:42:20;;;;;;;323.25;45.97;;;2.60;93.00;;;;;;6097291;23;20370;-86
2021/03/02 06:44:53;;;;;;;193.27;39.53;;;2.70;93.10;;;;;;6154426;23;20017;-86
2021/03/02 06:47:36;;;;;;;316.35;47.63;;;2.70;93.10;;;;;;6098218;23;20017;-85
2021/03/02 06:50:21;;;;;;;218.75;41.78;;;2.70;93.00;;;;;;6127429;23;20345;-85
2021/03/02 06:52:48;;;;;;;209.18;37.22;;;2.70;93.00;;;;;;6069723;23;20037;-86
2021/03/02 06:55:17;;;;;;;121.93;34.00;;;2.70;93.00;;;;;;6092335;23;20037;-87
2021/03/02 06:57:43;;;;;;;237.73;40.85;;;2.60;92.90;;;;;;6168273;23;20327;-84
2021/03/02 07:00:10;;;;;;;181.65;38.15;;;2.60;93.00;;;;;;6091866;23;20017;-84
2021/03/02 07:02:44;;;;;;;166.98;39.85;;;2.70;93.00;;;;;;6091022;23;20495;-83
2021/03/02 07:05:13;;;;;;;186.70;38.97;;;2.70;93.00;;;;;;6093450;23;20366;-87
2021/03/02 07:07:40;;;;;;;303.92;42.50;;;2.70;93.00;;;;;;6091580;23;20043;-84
2021/03/02 07:10:06;;;;;;;178.48;39.40;;;2.70;93.00;;;;;;6116732;23;20082;-85
2021/03/02 07:12:34;;;;;;;292.75;41.13;;;2.80;93.10;;;;;;6095515;23;20027;-87
2021/03/02 07:15:01;;;;;;;141.82;36.47;;;2.80;93.00;;;;;;6069946;23;20021;-85
2021/03/02 07:17:27;;;;;;;232.38;39.70;;;2.70;93.00;;;;;;6095235;23;20543;-86
2021/03/02 07:19:54;;;;;;;217.00;40.85;;;2.80;93.00;;;;;;6096347;23;20017;-85
2021/03/02 07:22:22;;;;;;;184.70;37.58;;;2.80;93.00;;;;;;6101135;23;20096;-88
2021/03/02 07:24:48;;;;;;;146.13;34.65;;;2.70;93.00;;;;;;6097830;23;20009;-84
2021/03/02 07:27:13;;;;;;;111.88;34.85;;;2.80;93.00;;;;;;6117353;23;20024;-86
2021/03/02 07:29:39;;;;;;;151.70;37.80;;;2.80;93.10;;;;;;6073015;23;20021;-84
2021/03/02 07:32:08;;;;;;;140.65;35.28;;;2.80;93.00;;;;;;6094614;23;20017;-86
2021/03/02 07:34:34;;;;;;;90.88;31.02;;;2.80;93.10;;;;;;6093674;23;20438;-87
2021/03/02 07:36:59;;;;;;;133.82;35.28;;;2.80;93.10;;;;;;6092649;23;20315;-85
2021/03/02 07:39:27;;;;;;;113.47;33.22;;;2.90;93.00;;;;;;6091083;23;20021;-86
2021/03/02 07:41:53;;;;;;;110.15;33.97;;;2.90;93.00;;;;;;6092264;23;20009;-86
2021/03/02 07:44:19;;;;;;;138.00;35.20;;;2.90;93.00;;;;;;6094895;23;20013;-86
2021/03/02 07:46:47;;;;;;;112.82;34.97;;;2.90;92.90;;;;;;6116789;23;20017;-88
2021/03/02 07:49:25;;;;;;;148.60;36.53;;;3.00;93.00;;;;;;6116554;23;20062;-85
2021/03/02 07:51:56;;;;;;;127.57;38.17;;;3.00;93.00;;;;;;6140481;23;20394;-84
2021/03/02 07:54:22;;;;;;;116.40;33.43;;;3.00;93.00;;;;;;6143650;23;20027;-85
2021/03/02 07:56:48;;;;;;;108.45;34.38;;;3.10;93.00;;;;;;6095835;23;20256;-85
2021/03/02 07:59:14;;;;;;;140.80;32.63;;;3.10;92.90;;;;;;6090479;23;20010;-85
2021/03/02 08:01:40;;;;;;;90.63;32.55;;;3.20;93.30;;;;;;6144564;23;20020;-86
2021/03/02 08:04:15;;;;;;;108.20;34.33;;;3.20;92.90;;;;;;6093100;23;20346;-87
2021/03/02 08:06:50;;;;;;;117.97;35.72;;;3.30;93.00;;;;;;6144103;23;20013;-86
2021/03/02 08:09:22;;;;;;;103.53;34.30;;;3.30;92.90;;;;;;6116444;23;20358;-87
2021/03/02 08:11:48;;;;;;;106.75;35.08;;;3.30;92.90;;;;;;6167170;23;20130;-86
2021/03/02 08:14:18;;;;;;;94.38;30.65;;;3.30;92.80;;;;;;6095721;23;20017;-87
2021/03/02 08:17:02;;;;;;;105.25;34.63;;;3.40;92.90;;;;;;6144885;23;20354;-85
2021/03/02 08:19:35;;;;;;;152.20;33.90;;;3.40;92.80;;;;;;6153534;23;20197;-85
2021/03/02 08:22:01;;;;;;;;;;;3.40;92.70;;;;;;6097686;23;20009;-87
2021/03/02 08:24:53;;;;;;;160.52;31.23;;;3.40;92.60;;;;;;6120800;23;20395;-88
2021/03/02 08:27:42;;;;;;;90.35;32.55;;;3.40;92.70;;;;;;6122184;23;20478;-87
2021/03/02 08:30:09;;;;;;;131.73;31.02;;;3.40;92.60;;;;;;6122299;23;20017;-88
2021/03/02 08:32:35;;;;;;;95.45;34.20;;;3.30;92.60;;;;;;6122783;23;20013;-84
2021/03/02 08:35:08;;;;;;;99.75;34.30;;;3.30;92.60;;;;;;6124214;23;20093;-86
2021/03/02 08:37:54;;;;;;;91.97;33.65;;;3.40;92.70;;;;;;6095880;23;20024;-85
2021/03/02 08:40:46;;;;;;;97.55;32.53;;;3.40;92.70;;;;;;6153135;23;20027;-87
2021/03/02 08:43:12;;;;;;;139.18;33.05;;;3.40;92.70;;;;;;6129474;23;20017;-86
2021/03/02 08:45:43;;;;;;;112.65;32.83;;;3.50;92.70;;;;;;6144259;23;20197;-88
2021/03/02 08:48:14;;;;;;;95.30;33.63;;;3.50;92.60;;;;;;6106014;23;20024;-87
2021/03/02 08:50:41;;;;;;;100.75;35.05;;;3.50;92.60;;;;;;6144149;23;20019;-86
2021/03/02 08:53:32;;;;;;;92.80;33.92;;;3.50;92.70;;;;;;6095599;23;20453;-87
2021/03/02 08:55:59;;;;;;;84.30;31.88;;;3.60;92.60;;;;;;6121698;23;20021;-85
2021/03/02 08:58:30;;;;;;;91.75;34.85;;;3.60;92.60;;;;;;6094701;23;20017;-87
2021/03/02 09:01:00;;;;;;;98.65;35.30;;;3.70;92.60;;;;;;6124508;22;20017;-84
2021/03/02 09:03:26;;;;;;;101.50;35.00;;;3.70;92.60;;;;;;6094277;23;20071;-83
2021/03/02 09:06:20;;;;;;;81.80;32.90;;;3.80;92.60;;;;;;6096399;23;20021;-87
2021/03/02 09:08:49;;;;;;;67.03;29.60;;;3.80;92.60;;;;;;6093272;23;20133;-85
2021/03/02 09:11:16;;;;;;;66.75;29.48;;;3.80;92.50;;;;;;6142446;23;20078;-84
2021/03/02 09:13:42;;;;;;;80.22;32.58;;;3.90;92.40;;;;;;6067303;23;20162;-83
2021/03/02 09:16:35;;;;;;;74.25;31.15;;;3.90;92.50;;;;;;6117243;23;20021;-84
2021/03/02 09:19:05;;;;;;;81.80;34.57;;;4.00;92.50;;;;;;6096959;23;20009;-84
2021/03/02 09:21:31;;;;;;;83.93;35.58;;;4.10;92.50;;;;;;6117921;23;20256;-84
2021/03/02 09:23:58;;;;;;;81.70;34.30;;;4.10;92.50;;;;;;6072417;23;20013;-85
2021/03/02 09:26:25;;;;;;;71.97;33.08;;;4.20;92.50;;;;;;6073793;23;20040;-84
2021/03/02 09:28:58;;;;;;;66.55;30.13;;;4.30;92.50;;;;;;6095648;23;20025;-87
2021/03/02 09:31:24;;;;;;;70.55;32.97;;;4.30;92.30;;;;;;6120055;23;20438;-85
2021/03/02 09:33:50;;;;;;;66.57;31.00;;;4.30;92.30;;;;;;6072425;23;20311;-86
2021/03/02 09:36:19;;;;;;;62.72;29.98;;;4.30;92.30;;;;;;6071601;23;20107;-86
2021/03/02 09:38:46;;;;;;;76.90;33.70;;;4.40;92.20;;;;;;6097699;23;20446;-87
2021/03/02 09:41:12;;;;;;;66.20;30.48;;;4.40;92.20;;;;;;6102060;23;20311;-88
2021/03/02 09:43:38;;;;;;;65.15;31.67;;;4.50;92.10;;;;;;6099697;23;20033;-84
2021/03/02 09:46:05;;;;;;;61.63;29.52;;;4.50;92.10;;;;;;6095670;23;20012;-85
2021/03/02 09:48:47;;;;;;;60.20;30.05;;;4.60;92.10;;;;;;6094023;23;20357;-87
2021/03/02 09:51:32;;;;;;;64.28;31.10;;;4.50;91.90;;;;;;6095091;23;20046;-86
2021/03/02 09:54:17;;;;;;;56.97;29.13;;;4.50;91.90;;;;;;6095333;23;20289;-86
2021/03/02 09:57:07;;;;;;;67.05;31.25;;;4.60;92.00;;;;;;6118852;23;20399;-85
2021/03/02 09:59:54;;;;;;;63.95;30.85;;;4.60;91.90;;;;;;5925523;23;20080;-86
2021/03/02 10:02:20;;;;;;;61.88;30.55;;;4.70;91.70;;;;;;6054936;23;20030;-84
2021/03/02 10:04:46;;;;;;;64.78;32.60;;;4.70;91.70;;;;;;6053354;23;20022;-86
2021/03/02 10:07:12;;;;;;;60.13;30.52;;;4.70;91.70;;;;;;6055011;23;20022;-88
2021/03/02 10:09:38;;;;;;;55.72;28.98;;;4.70;91.70;;;;;;6028896;23;20476;-91
2021/03/02 10:12:11;;;;;;;57.80;28.42;;;4.70;91.80;;;;;;6028274;23;20065;-86
2021/03/02 10:14:41;;;;;;;53.92;28.77;;;4.80;91.80;;;;;;6030912;23;20407;-84
2021/03/02 10:17:08;;;;;;;55.92;29.67;;;4.90;91.80;;;;;;6057504;23;20033;-83
2021/03/02 10:19:34;;;;;;;57.92;29.13;;;5.00;91.80;;;;;;6028302;23;20015;-85
2021/03/02 10:22:01;;;;;;;59.35;31.40;;;5.10;91.70;;;;;;6076184;23;20023;-83
2021/03/02 10:24:28;;;;;;;56.22;29.80;;;5.30;91.60;;;;;;6053302;23;20038;-84
2021/03/02 10:26:59;;;;;;;56.88;30.02;;;5.40;91.50;;;;;;6028170;23;20019;-86
2021/03/02 10:29:26;;;;;;;49.10;27.65;;;5.60;91.50;;;;;;6043527;23;20120;-87
2021/03/02 10:31:52;;;;;;;56.22;29.95;;;5.70;91.40;;;;;;6071572;23;20651;-85
2021/03/02 10:34:23;;;;;;;53.75;29.25;;;5.90;91.20;;;;;;6069976;23;20037;-87
2021/03/02 10:36:58;;;;;;;49.47;26.88;;;6.00;91.10;;;;;;6093252;23;20024;-87
2021/03/02 10:39:25;;;;;;;47.25;27.00;;;6.10;90.80;;;;;;6073374;23;20458;-89
2021/03/02 10:41:51;;;;;;;53.38;29.70;;;6.10;90.80;;;;;;6072727;23;20021;-87
2021/03/02 10:44:20;;;;;;;53.38;29.88;;;6.10;90.80;;;;;;6117562;23;20020;-89
2021/03/02 10:46:51;;;;;;;54.35;30.20;;;6.10;90.40;;;;;;6119166;23;20491;-88
2021/03/02 10:49:17;;;;;;;55.30;31.13;;;6.10;90.70;;;;;;6071488;23;20013;-89
2021/03/02 10:51:43;;;;;;;54.35;30.35;;;6.10;90.60;;;;;;6077478;23;20020;-88
2021/03/02 10:54:09;;;;;;;49.45;27.63;;;6.10;90.60;;;;;;6071039;23;20392;-88
2021/03/02 10:56:35;;;;;;;55.40;30.40;;;6.20;90.50;;;;;;6095808;23;20017;-88
2021/03/02 10:59:05;;;;;;;50.75;28.58;;;6.30;90.60;;;;;;6072908;23;20013;-88
2021/03/02 11:01:36;;;;;;;47.55;29.27;;;6.40;90.50;;;;;;6076071;23;20016;-90
2021/03/02 11:04:02;;;;;;;49.47;27.98;;;6.50;90.50;;;;;;6073276;23;20108;-87
2021/03/02 11:06:29;;;;;;;51.38;29.73;;;6.50;90.30;;;;;;6074246;23;20041;-88
2021/03/02 11:08:56;;;;;;;54.42;30.60;;;6.60;90.20;;;;;;6072444;23;20516;-88
2021/03/02 11:11:22;;;;;;;55.78;31.45;;;6.60;90.10;;;;;;6095167;23;20017;-88
2021/03/02 11:13:51;;;;;;;51.15;30.83;;;6.70;90.20;;;;;;6071039;23;20370;-88
2021/03/02 11:16:17;;;;;;;52.15;29.00;;;6.80;90.10;;;;;;6098535;23;20497;-88
2021/03/02 11:18:46;;;;;;;51.92;29.90;;;6.90;90.10;;;;;;6096405;23;20466;-85
2021/03/02 11:21:12;;;;;;;47.72;28.60;;;7.00;89.70;;;;;;6070752;23;20279;-88
2021/03/02 11:23:40;;;;;;;53.22;29.90;;;7.00;89.60;;;;;;6074356;23;20020;-87
2021/03/02 11:26:07;;;;;;;47.15;28.02;;;7.00;89.40;;;;;;6103819;23;20020;-87
2021/03/02 11:28:33;;;;;;;42.10;25.80;;;7.10;89.40;;;;;;6072843;23;20458;-88
2021/03/02 11:31:02;;;;;;;43.45;26.05;;;7.20;89.10;;;;;;6073784;23;20020;-88
2021/03/02 11:33:28;;;;;;;41.42;25.48;;;7.20;88.60;;;;;;6074146;23;20017;-88
2021/03/02 11:35:54;;;;;;;39.88;25.23;;;7.20;88.30;;;;;;6071716;23;20399;-88
2021/03/02 11:38:20;;;;;;;39.60;25.80;;;7.20;88.00;;;;;;6069305;23;20025;-88
2021/03/02 11:40:46;;;;;;;43.80;26.77;;;7.30;88.00;;;;;;6095040;23;20017;-88
2021/03/02 11:43:12;;;;;;;45.90;27.05;;;7.50;88.10;;;;;;6069868;23;20020;-87
2021/03/02 11:45:38;;;;;;;40.53;26.55;;;7.60;88.00;;;;;;6071595;23;20013;-88
2021/03/02 11:48:08;;;;;;;40.33;25.90;;;7.70;87.70;;;;;;6069646;23;20021;-88
2021/03/02 11:50:37;;;;;;;42.78;24.98;;;7.90;87.50;;;;;;6094463;23;20013;-87
2021/03/02 11:53:03;;;;;;;41.15;25.60;;;8.00;86.70;;;;;;6076508;23;20441;-86
2021/03/02 11:55:29;;;;;;;40.45;25.75;;;8.10;86.70;;;;;;6072241;23;20014;-88
2021/03/02 11:57:55;;;;;;;42.13;27.30;;;8.10;86.60;;;;;;6070084;23;20497;-85
2021/03/02 12:00:25;;;;;;;45.30;27.83;;;8.20;86.20;;;;;;6151264;23;20331;-88
2021/03/02 12:02:53;;;;;;;42.80;27.27;;;8.30;86.50;;;;;;6071601;23;20013;-89
2021/03/02 12:05:23;;;;;;;42.25;25.90;;;8.30;86.10;;;;;;6071467;23;20594;-89
2021/03/02 12:08:00;;;;;;;41.47;25.85;;;8.40;86.50;;;;;;6099294;23;20273;-86
2021/03/02 12:10:28;;;;;;;41.78;25.55;;;8.50;86.80;;;;;;6097397;23;20528;-86
2021/03/02 12:12:54;;;;;;;38.67;25.55;;;8.70;86.90;;;;;;6093280;23;20040;-88
2021/03/02 12:15:20;;;;;;;40.20;26.70;;;8.80;86.70;;;;;;6072018;23;20503;-88
2021/03/02 12:17:46;;;;;;;37.45;24.35;;;8.90;86.40;;;;;;6069584;23;20505;-87
2021/03/02 12:20:15;;;;;;;36.30;24.90;;;9.10;85.60;;;;;;6094152;23;20017;-87
2021/03/02 12:22:44;;;;;;;37.95;24.52;;;9.40;85.20;;;;;;6069520;23;20017;-89
2021/03/02 12:25:10;;;;;;;37.05;24.38;;;9.50;84.10;;;;;;6072335;23;20023;-88
2021/03/02 12:27:43;;;;;;;34.25;24.02;;;9.60;84.20;;;;;;6070606;23;20544;-89
2021/03/02 12:30:10;;;;;;;30.50;22.45;;;9.70;84.10;;;;;;6106166;23;20398;-87
2021/03/02 12:32:35;;;;;;;32.63;22.63;;;9.80;83.10;;;;;;6099705;23;20004;-89
2021/03/02 12:35:02;;;;;;;37.78;25.70;;;9.90;82.70;;;;;;6074453;23;20013;-88
2021/03/02 12:37:28;;;;;;;37.92;24.38;;;10.00;82.50;;;;;;6074189;23;20059;-88